Terminal Aerodrome Forecast
Issued by NWS Albany, NY

Home | Current Version | Previous Version | Text Only | Print | Product List | Glossary On
Versions: 1 2 3 4 5 6 7 8 9 10 11 12 13 14 15 16 17 18 19 20
286
FTUS41 KALY 241123
TAFALB
TAF
KALB 241123Z 2412/2512 17007KT P6SM OVC080
     FM241400 17015G28KT 1 1/2SM -SNPLRA BR BKN025 OVC040
     FM241600 17015G27KT 3SM -RAPL BR BKN025 OVC040
     FM241700 17013G24KT 6SM -RA BR OVC035
     FM242100 17010KT P6SM VCSH OVC040
     FM250800 VRB03KT 6SM BR OVC020 PROB30 2508/2512 4SM -RA BR
      OVC007=

USA.gov is the U.S. government's official web portal to all federal, state and local government web resources and services.